Time;durP1;ratioP1;P1;durP2;ratioP2;P2;SDS_P1;SDS_P2;PMS_P1;PMS_P2;Temp;Humidity;BMP_temperature;BMP_pressure;BME280_temperature;BME280_humidity;BME280_pressure;Samples;Min_cycle;Max_cycle;Signal;HPM_P1;HPM_P2
2023/01/26 00:01:00;;;;;;;130.83;37.53;;;;;;;;;;4985397;28;20273;-76
2023/01/26 00:03:27;;;;;;;131.47;39.73;;;;;;;;;;4984860;28;20355;-76
2023/01/26 00:05:53;;;;;;;123.33;38.20;;;;;;;;;;4995759;28;20258;-76
2023/01/26 00:08:22;;;;;;;128.33;37.27;;;;;;;;;;4995985;28;20516;-76
2023/01/26 00:10:50;;;;;;;126.57;38.97;;;;;;;;;;4996508;28;20057;-76
2023/01/26 00:13:18;;;;;;;135.10;37.13;;;;;;;;;;4979472;28;20273;-75
2023/01/26 00:15:47;;;;;;;125.27;36.60;;;;;;;;;;5000363;28;20276;-76
2023/01/26 00:18:13;;;;;;;128.33;39.43;;;;;;;;;;4986720;28;20313;-76
2023/01/26 00:20:40;;;;;;;112.40;36.00;;;;;;;;;;5008580;28;20257;-76
2023/01/26 00:23:06;;;;;;;126.73;41.43;;;;;;;;;;5004683;28;20257;-76
2023/01/26 00:25:32;;;;;;;131.07;38.47;;;;;;;;;;4990948;28;20277;-76
2023/01/26 00:27:58;;;;;;;116.90;35.13;;;;;;;;;;4999358;28;20322;-77
2023/01/26 00:30:24;;;;;;;127.57;36.03;;;;;;;;;;4983212;28;20278;-77
2023/01/26 00:32:50;;;;;;;120.60;37.07;;;;;;;;;;4987768;28;20423;-76
2023/01/26 00:35:16;;;;;;;109.20;32.87;;;;;;;;;;4997776;28;20040;-77
2023/01/26 00:37:42;;;;;;;116.47;36.60;;;;;;;;;;5012579;28;20289;-76
2023/01/26 00:40:09;;;;;;;117.20;36.67;;;;;;;;;;4998040;28;20053;-76
2023/01/26 00:42:35;;;;;;;130.00;37.80;;;;;;;;;;4997856;28;20288;-76
2023/01/26 00:45:01;;;;;;;126.77;39.43;;;;;;;;;;4991065;28;20278;-74
2023/01/26 00:47:27;;;;;;;133.73;39.80;;;;;;;;;;4993465;28;20300;-76
2023/01/26 00:49:53;;;;;;;132.77;40.13;;;;;;;;;;4988170;28;20404;-76
2023/01/26 00:52:19;;;;;;;138.23;40.63;;;;;;;;;;5003109;28;20436;-77
2023/01/26 00:54:47;;;;;;;143.10;42.57;;;;;;;;;;5000994;28;20026;-76
2023/01/26 00:57:13;;;;;;;121.63;37.30;;;;;;;;;;4981534;28;20113;-76
2023/01/26 00:59:39;;;;;;;130.97;38.00;;;;;;;;;;4992518;28;20750;-77
2023/01/26 01:02:05;;;;;;;116.37;37.53;;;;;;;;;;4989753;28;20053;-75
2023/01/26 01:04:31;;;;;;;125.23;35.80;;;;;;;;;;4993409;28;20038;-76
2023/01/26 01:06:57;;;;;;;125.23;37.13;;;;;;;;;;4995353;28;20385;-76
2023/01/26 01:09:24;;;;;;;122.77;35.47;;;;;;;;;;4993709;28;20335;-76
2023/01/26 01:11:50;;;;;;;132.23;38.03;;;;;;;;;;4991370;28;20280;-77
2023/01/26 01:14:16;;;;;;;129.17;37.37;;;;;;;;;;4992493;28;20269;-75
2023/01/26 01:16:42;;;;;;;133.30;36.47;;;;;;;;;;4988817;28;20270;-77
2023/01/26 01:19:12;;;;;;;129.83;38.23;;;;;;;;;;4987238;28;20376;-76
2023/01/26 01:21:38;;;;;;;123.90;36.63;;;;;;;;;;4990522;28;20273;-77
2023/01/26 01:24:06;;;;;;;120.93;36.67;;;;;;;;;;4986382;28;20273;-76
2023/01/26 01:26:32;;;;;;;116.67;35.23;;;;;;;;;;4986886;28;20275;-76
2023/01/26 01:28:58;;;;;;;122.13;35.87;;;;;;;;;;4996108;28;20284;-77
2023/01/26 01:31:25;;;;;;;130.43;38.43;;;;;;;;;;4984994;28;20606;-76
2023/01/26 01:33:52;;;;;;;135.50;36.97;;;;;;;;;;4986518;28;20046;-76
2023/01/26 01:36:19;;;;;;;130.00;37.13;;;;;;;;;;4991380;28;20273;-76
2023/01/26 01:38:45;;;;;;;133.97;38.00;;;;;;;;;;4993911;28;20281;-77
2023/01/26 01:41:13;;;;;;;131.77;37.63;;;;;;;;;;4989060;28;20283;-77
2023/01/26 01:43:39;;;;;;;132.33;38.43;;;;;;;;;;4993196;28;20303;-75
2023/01/26 01:46:14;;;;;;;112.80;35.43;;;;;;;;;;4989298;28;20797;-77
2023/01/26 01:48:49;;;;;;;120.23;36.70;;;;;;;;;;5000476;28;20281;-76
2023/01/26 01:51:17;;;;;;;124.07;34.57;;;;;;;;;;4989565;28;20312;-75
2023/01/26 01:53:45;;;;;;;125.70;37.77;;;;;;;;;;4992984;28;20317;-75
2023/01/26 01:56:14;;;;;;;120.20;35.60;;;;;;;;;;4989210;28;20295;-76
2023/01/26 01:58:42;;;;;;;108.73;35.17;;;;;;;;;;4992463;28;20312;-78
2023/01/26 02:01:09;;;;;;;117.50;35.60;;;;;;;;;;4987824;28;20334;-76
2023/01/26 02:03:38;;;;;;;115.53;35.87;;;;;;;;;;4987788;28;20272;-75
2023/01/26 02:06:07;;;;;;;116.60;34.40;;;;;;;;;;4998676;28;20293;-77
2023/01/26 02:08:36;;;;;;;122.47;37.47;;;;;;;;;;5000487;28;20278;-75
2023/01/26 02:11:04;;;;;;;123.43;38.03;;;;;;;;;;5002750;28;20289;-76
2023/01/26 02:13:31;;;;;;;105.13;34.37;;;;;;;;;;4991846;28;20306;-77
2023/01/26 02:15:58;;;;;;;112.73;35.50;;;;;;;;;;4995869;28;20289;-75
2023/01/26 02:18:24;;;;;;;112.90;35.37;;;;;;;;;;4995068;28;20292;-76
2023/01/26 02:21:00;;;;;;;105.00;35.13;;;;;;;;;;4988499;28;20327;-75
2023/01/26 02:23:26;;;;;;;104.90;33.30;;;;;;;;;;4989747;28;21804;-76
2023/01/26 02:25:52;;;;;;;111.27;35.03;;;;;;;;;;5005449;28;20308;-76
2023/01/26 02:28:22;;;;;;;114.70;35.47;;;;;;;;;;4994912;28;20053;-75
2023/01/26 02:30:48;;;;;;;99.10;35.13;;;;;;;;;;4994871;28;20040;-76
2023/01/26 02:33:17;;;;;;;114.03;37.00;;;;;;;;;;5003450;28;20276;-78
2023/01/26 02:35:43;;;;;;;112.20;36.67;;;;;;;;;;4994286;28;20289;-76
2023/01/26 02:38:08;;;;;;;129.40;39.50;;;;;;;;;;4992340;28;20304;-76
2023/01/26 02:40:47;;;;;;;132.40;41.40;;;;;;;;;;5002235;28;20036;-76
2023/01/26 02:43:13;;;;;;;122.00;38.53;;;;;;;;;;4998309;28;20593;-77
2023/01/26 02:45:40;;;;;;;127.70;38.00;;;;;;;;;;4996617;28;20364;-76
2023/01/26 02:48:06;;;;;;;138.77;38.93;;;;;;;;;;4995904;28;20045;-76
2023/01/26 02:50:33;;;;;;;135.50;38.77;;;;;;;;;;5001473;28;20269;-76
2023/01/26 02:52:59;;;;;;;145.13;42.00;;;;;;;;;;4991562;28;20268;-75
2023/01/26 02:55:26;;;;;;;135.60;38.60;;;;;;;;;;5001330;28;20653;-77
2023/01/26 02:57:53;;;;;;;124.83;39.63;;;;;;;;;;5000081;28;20118;-77
2023/01/26 03:00:21;;;;;;;124.33;41.27;;;;;;;;;;4995998;28;20272;-76
2023/01/26 03:02:50;;;;;;;129.50;38.03;;;;;;;;;;4999186;28;20717;-76
2023/01/26 03:05:17;;;;;;;119.53;36.73;;;;;;;;;;5005433;28;20303;-77
2023/01/26 03:07:43;;;;;;;118.73;37.73;;;;;;;;;;4999872;28;20265;-76
2023/01/26 03:10:09;;;;;;;124.47;38.90;;;;;;;;;;4998932;28;20261;-76
2023/01/26 03:12:35;;;;;;;124.10;37.07;;;;;;;;;;4987499;28;20284;-77
2023/01/26 03:17:46;;;;;;;122.67;36.00;;;;;;;;;;5013287;28;20685;-77
2023/01/26 03:28:25;;;;;;;113.53;35.63;;;;;;;;;;4997611;28;20338;-79
2023/01/26 03:30:53;;;;;;;121.27;37.60;;;;;;;;;;5004338;28;20265;-75
2023/01/26 03:33:20;;;;;;;123.83;37.07;;;;;;;;;;5008840;28;20343;-76
2023/01/26 03:35:46;;;;;;;123.70;33.70;;;;;;;;;;4999266;28;20653;-76
2023/01/26 03:38:12;;;;;;;119.10;34.37;;;;;;;;;;4999047;28;20284;-76
2023/01/26 03:57:10;;;;;;;105.57;30.60;;;;;;;;;;4937055;29;20283;-77
2023/01/26 03:59:41;;;;;;;106.47;32.80;;;;;;;;;;4920719;29;20347;-76
2023/01/26 04:10:22;;;;;;;91.97;32.57;;;;;;;;;;5007800;28;20347;-77
2023/01/26 04:23:50;;;;;;;95.13;29.97;;;;;;;;;;5015538;28;20324;-77
2023/01/26 04:26:16;;;;;;;92.67;30.90;;;;;;;;;;4998466;28;20281;-75
2023/01/26 04:28:42;;;;;;;95.53;29.80;;;;;;;;;;5001680;28;20706;-76
2023/01/26 04:31:08;;;;;;;105.43;29.87;;;;;;;;;;4998427;28;20261;-77
2023/01/26 04:33:34;;;;;;;101.33;30.57;;;;;;;;;;4998240;28;20119;-75
2023/01/26 04:36:07;;;;;;;101.93;29.77;;;;;;;;;;4985628;28;20265;-76
2023/01/26 04:38:33;;;;;;;99.90;31.23;;;;;;;;;;4998499;28;20280;-76
2023/01/26 04:40:59;;;;;;;98.57;31.53;;;;;;;;;;5007266;28;20287;-76
2023/01/26 04:43:28;;;;;;;98.93;31.03;;;;;;;;;;4999156;28;20164;-77
2023/01/26 04:46:00;;;;;;;87.90;29.37;;;;;;;;;;5008391;28;20261;-76
2023/01/26 04:48:26;;;;;;;;;;;;;;;;;;4989162;28;20661;-77
2023/01/26 04:50:56;;;;;;;101.83;29.53;;;;;;;;;;4996771;28;19992;-76
2023/01/26 04:53:23;;;;;;;99.33;28.97;;;;;;;;;;4999354;28;20358;-76
2023/01/26 04:55:49;;;;;;;99.33;31.80;;;;;;;;;;5002748;28;20287;-76
2023/01/26 04:58:17;;;;;;;99.53;30.50;;;;;;;;;;4991120;28;20282;-76
2023/01/26 05:00:43;;;;;;;104.10;32.63;;;;;;;;;;4978731;28;20281;-76
2023/01/26 05:03:12;;;;;;;89.80;30.77;;;;;;;;;;4996811;28;20276;-77
2023/01/26 05:05:40;;;;;;;101.73;30.53;;;;;;;;;;4997891;28;20307;-76
2023/01/26 05:08:06;;;;;;;114.10;31.60;;;;;;;;;;4996054;28;20609;-76
2023/01/26 05:10:32;;;;;;;93.67;31.47;;;;;;;;;;5008319;28;20348;-76
2023/01/26 05:12:59;;;;;;;93.90;28.70;;;;;;;;;;4996391;28;20022;-79
2023/01/26 05:15:25;;;;;;;92.33;28.80;;;;;;;;;;4998238;28;20026;-76
2023/01/26 05:17:53;;;;;;;99.33;29.60;;;;;;;;;;4990649;28;20300;-76
2023/01/26 05:20:19;;;;;;;107.23;29.27;;;;;;;;;;4994620;28;20688;-76
2023/01/26 05:22:46;;;;;;;98.37;31.83;;;;;;;;;;4997670;28;20265;-76
2023/01/26 05:25:12;;;;;;;100.67;30.73;;;;;;;;;;5014885;28;20833;-76
2023/01/26 05:27:38;;;;;;;98.97;30.87;;;;;;;;;;4999444;28;20269;-76
2023/01/26 05:30:06;;;;;;;93.00;30.67;;;;;;;;;;4997635;28;20104;-76
2023/01/26 05:32:32;;;;;;;94.60;29.80;;;;;;;;;;4990443;28;20060;-76
2023/01/26 05:34:58;;;;;;;100.57;30.93;;;;;;;;;;4998543;28;20609;-77
2023/01/26 05:37:25;;;;;;;87.73;28.03;;;;;;;;;;4984217;28;20116;-76
2023/01/26 05:39:51;;;;;;;99.93;30.57;;;;;;;;;;4997572;28;20695;-77
2023/01/26 05:42:18;;;;;;;94.63;29.73;;;;;;;;;;4990884;28;20646;-77
2023/01/26 05:44:44;;;;;;;103.97;30.90;;;;;;;;;;4984313;28;20316;-76
2023/01/26 05:47:10;;;;;;;102.30;33.53;;;;;;;;;;5004344;28;20253;-76
2023/01/26 05:49:40;;;;;;;99.53;31.37;;;;;;;;;;5008167;28;20377;-77
2023/01/26 05:52:09;;;;;;;105.47;32.93;;;;;;;;;;4994249;28;20481;-77
2023/01/26 05:54:36;;;;;;;108.53;33.47;;;;;;;;;;5004092;28;20717;-76
2023/01/26 05:57:02;;;;;;;93.40;31.57;;;;;;;;;;4981402;28;20297;-77
2023/01/26 05:59:28;;;;;;;98.13;30.43;;;;;;;;;;5000880;28;20276;-76
2023/01/26 06:01:55;;;;;;;92.80;29.87;;;;;;;;;;5005757;28;20351;-76
2023/01/26 06:04:21;;;;;;;96.43;29.80;;;;;;;;;;5000636;28;20793;-77
2023/01/26 06:06:47;;;;;;;89.20;29.87;;;;;;;;;;5005376;28;20253;-76
2023/01/26 06:09:13;;;;;;;101.10;33.13;;;;;;;;;;4987586;28;20780;-78
2023/01/26 06:11:42;;;;;;;93.97;29.70;;;;;;;;;;4986437;28;20030;-77
2023/01/26 06:14:08;;;;;;;103.07;31.73;;;;;;;;;;4999361;28;20690;-77
2023/01/26 06:16:34;;;;;;;93.67;32.13;;;;;;;;;;4998884;28;20525;-76
2023/01/26 06:19:00;;;;;;;102.47;31.90;;;;;;;;;;5000700;28;21168;-77
2023/01/26 06:21:26;;;;;;;112.17;32.70;;;;;;;;;;4996780;28;20026;-77
2023/01/26 06:23:52;;;;;;;116.20;33.83;;;;;;;;;;4985715;28;20261;-78
2023/01/26 06:26:20;;;;;;;102.50;34.50;;;;;;;;;;5000385;28;20057;-77
2023/01/26 06:28:46;;;;;;;112.43;32.10;;;;;;;;;;5017645;28;20261;-78
2023/01/26 06:31:12;;;;;;;113.13;35.33;;;;;;;;;;4991606;28;20257;-77
2023/01/26 06:33:41;;;;;;;108.33;33.47;;;;;;;;;;4994106;28;20101;-76
2023/01/26 06:36:08;;;;;;;104.90;32.70;;;;;;;;;;5000395;28;20273;-78
2023/01/26 06:38:35;;;;;;;114.43;33.13;;;;;;;;;;4996769;28;20347;-77
2023/01/26 06:41:01;;;;;;;115.37;33.57;;;;;;;;;;4995065;28;20284;-76
2023/01/26 06:43:29;;;;;;;109.63;31.67;;;;;;;;;;5002386;28;20327;-77
2023/01/26 06:45:58;;;;;;;110.20;33.13;;;;;;;;;;4988422;28;20301;-76
2023/01/26 06:48:25;;;;;;;103.17;31.20;;;;;;;;;;4995012;28;20277;-76
2023/01/26 06:50:51;;;;;;;121.97;34.00;;;;;;;;;;4996221;28;20277;-76
2023/01/26 06:53:40;;;;;;;113.70;34.23;;;;;;;;;;5003999;28;20419;-76
2023/01/26 06:56:06;;;;;;;107.50;31.67;;;;;;;;;;4988523;28;20640;-76
2023/01/26 06:58:32;;;;;;;110.47;33.10;;;;;;;;;;4988666;28;20380;-76
2023/01/26 07:00:59;;;;;;;108.80;31.77;;;;;;;;;;4994612;28;20338;-76
2023/01/26 07:03:25;;;;;;;131.90;33.77;;;;;;;;;;4993949;28;20030;-77
2023/01/26 07:05:51;;;;;;;120.53;32.80;;;;;;;;;;4990562;28;20281;-77
2023/01/26 07:08:17;;;;;;;117.33;33.73;;;;;;;;;;4992624;28;20281;-76
2023/01/26 07:10:43;;;;;;;103.17;32.87;;;;;;;;;;5006691;28;20613;-76
2023/01/26 07:13:11;;;;;;;103.37;32.50;;;;;;;;;;4989576;28;20285;-77
2023/01/26 07:15:38;;;;;;;121.77;33.27;;;;;;;;;;5004039;28;20117;-76
2023/01/26 07:18:03;;;;;;;106.30;31.60;;;;;;;;;;4993560;28;20282;-77
2023/01/26 07:20:29;;;;;;;113.63;32.53;;;;;;;;;;4996574;28;21955;-77
2023/01/26 07:22:55;;;;;;;97.83;30.83;;;;;;;;;;4991424;28;20045;-76
2023/01/26 07:25:21;;;;;;;104.77;30.00;;;;;;;;;;5001411;28;20332;-76
2023/01/26 07:27:47;;;;;;;94.87;29.03;;;;;;;;;;4994525;28;20273;-76
2023/01/26 07:30:14;;;;;;;98.93;29.00;;;;;;;;;;4995035;28;20026;-76
2023/01/26 07:32:40;;;;;;;94.57;28.43;;;;;;;;;;4993682;28;20065;-77
2023/01/26 07:35:06;;;;;;;94.07;29.53;;;;;;;;;;4994026;28;20299;-77
2023/01/26 07:37:33;;;;;;;89.57;27.93;;;;;;;;;;4993128;28;20745;-76
2023/01/26 07:39:58;;;;;;;94.10;29.77;;;;;;;;;;4994314;28;20360;-76
2023/01/26 07:42:25;;;;;;;87.73;28.40;;;;;;;;;;4998496;28;20685;-76
2023/01/26 07:44:51;;;;;;;83.43;26.30;;;;;;;;;;5001550;28;20037;-76
2023/01/26 07:47:18;;;;;;;89.13;26.73;;;;;;;;;;4994403;28;20273;-77
2023/01/26 07:49:45;;;;;;;79.63;28.33;;;;;;;;;;5004371;28;20288;-76
2023/01/26 07:52:11;;;;;;;85.17;28.70;;;;;;;;;;4989509;28;20269;-77
2023/01/26 07:54:38;;;;;;;88.63;26.63;;;;;;;;;;5003675;28;22101;-76
2023/01/26 07:57:07;;;;;;;81.30;25.80;;;;;;;;;;5006099;28;20056;-76
2023/01/26 07:59:33;;;;;;;86.83;24.67;;;;;;;;;;4988617;28;20809;-78
2023/01/26 08:01:59;;;;;;;89.10;27.57;;;;;;;;;;5008198;28;20277;-78
2023/01/26 08:04:25;;;;;;;79.53;26.33;;;;;;;;;;4992059;28;20269;-77
2023/01/26 08:06:52;;;;;;;83.27;26.27;;;;;;;;;;5003620;28;20292;-76
2023/01/26 08:09:18;;;;;;;81.40;26.57;;;;;;;;;;4989571;28;20036;-78
2023/01/26 08:11:44;;;;;;;72.23;23.70;;;;;;;;;;5002138;28;20320;-77
2023/01/26 08:14:10;;;;;;;75.13;25.77;;;;;;;;;;5000703;28;20308;-77
2023/01/26 08:16:36;;;;;;;78.57;25.53;;;;;;;;;;4993024;28;20038;-79
2023/01/26 08:19:02;;;;;;;72.00;23.53;;;;;;;;;;4985384;28;20297;-77
2023/01/26 08:21:28;;;;;;;64.87;25.30;;;;;;;;;;4995631;28;20293;-78
2023/01/26 08:23:54;;;;;;;73.10;26.70;;;;;;;;;;5004844;28;20365;-78
2023/01/26 08:26:20;;;;;;;65.77;23.50;;;;;;;;;;5003032;28;20308;-79
2023/01/26 08:28:46;;;;;;;76.20;25.97;;;;;;;;;;4989290;28;20100;-78
2023/01/26 08:31:18;;;;;;;60.83;21.90;;;;;;;;;;4990594;28;20331;-78
2023/01/26 08:33:44;;;;;;;75.80;25.67;;;;;;;;;;4995069;28;20284;-78
2023/01/26 08:36:11;;;;;;;72.53;24.93;;;;;;;;;;4994594;28;20759;-78
2023/01/26 08:38:37;;;;;;;70.13;26.17;;;;;;;;;;4988146;28;20313;-77
2023/01/26 08:41:03;;;;;;;75.10;26.30;;;;;;;;;;4994602;28;20280;-78
2023/01/26 08:43:29;;;;;;;76.20;28.97;;;;;;;;;;4993476;28;20273;-79
2023/01/26 08:45:56;;;;;;;82.87;26.70;;;;;;;;;;4997130;28;20268;-79
2023/01/26 08:48:22;;;;;;;78.50;25.73;;;;;;;;;;5007947;28;20288;-79
2023/01/26 08:50:48;;;;;;;83.47;27.83;;;;;;;;;;5008838;28;20274;-79
2023/01/26 08:53:14;;;;;;;76.73;26.23;;;;;;;;;;5007921;28;20424;-78
2023/01/26 08:55:42;;;;;;;94.40;27.63;;;;;;;;;;4990030;28;20034;-77
2023/01/26 08:58:08;;;;;;;84.90;26.67;;;;;;;;;;4986017;28;20654;-77
2023/01/26 09:00:34;;;;;;;85.77;26.43;;;;;;;;;;4995599;28;20735;-77
2023/01/26 09:03:03;;;;;;;82.17;26.33;;;;;;;;;;4996932;28;20426;-76
2023/01/26 09:05:34;;;;;;;79.03;26.30;;;;;;;;;;4988310;28;20264;-77
2023/01/26 09:08:00;;;;;;;82.23;27.53;;;;;;;;;;5001640;28;20279;-77
2023/01/26 09:10:26;;;;;;;84.33;26.53;;;;;;;;;;4997711;28;20272;-77
2023/01/26 09:12:52;;;;;;;89.17;30.33;;;;;;;;;;5000598;28;20038;-77
2023/01/26 09:15:18;;;;;;;86.13;25.60;;;;;;;;;;4991351;28;20276;-77
2023/01/26 09:17:44;;;;;;;92.67;28.07;;;;;;;;;;4998269;28;20354;-77
2023/01/26 09:20:11;;;;;;;77.07;25.20;;;;;;;;;;4993068;28;20307;-77
2023/01/26 09:22:37;;;;;;;85.53;25.20;;;;;;;;;;4988076;28;20265;-77
2023/01/26 09:25:03;;;;;;;71.87;24.90;;;;;;;;;;5004153;28;20269;-77
2023/01/26 09:27:32;;;;;;;74.23;24.23;;;;;;;;;;5013680;28;20269;-77
2023/01/26 09:29:58;;;;;;;68.87;23.97;;;;;;;;;;4996850;28;20273;-76
2023/01/26 09:32:24;;;;;;;75.83;25.20;;;;;;;;;;4997139;28;20277;-76
2023/01/26 09:34:50;;;;;;;88.27;29.27;;;;;;;;;;4996777;28;20273;-77
2023/01/26 09:37:16;;;;;;;75.80;25.80;;;;;;;;;;5010061;28;20271;-77
2023/01/26 09:39:42;;;;;;;79.57;26.80;;;;;;;;;;4996102;28;20054;-80
2023/01/26 09:42:11;;;;;;;84.00;27.33;;;;;;;;;;4998878;28;20261;-77
2023/01/26 09:44:43;;;;;;;77.83;25.53;;;;;;;;;;5016448;28;20405;-77
2023/01/26 09:47:09;;;;;;;78.97;24.83;;;;;;;;;;5001651;28;20371;-78
2023/01/26 09:49:42;;;;;;;77.40;26.30;;;;;;;;;;5005028;28;20319;-80
2023/01/26 09:52:08;;;;;;;78.57;27.77;;;;;;;;;;4993977;28;20101;-77
2023/01/26 09:54:39;;;;;;;82.17;27.07;;;;;;;;;;4993338;28;20756;-77
2023/01/26 09:57:16;;;;;;;93.43;28.90;;;;;;;;;;4997311;28;20021;-76
2023/01/26 09:59:42;;;;;;;85.20;29.90;;;;;;;;;;5001237;28;20281;-77
2023/01/26 10:02:11;;;;;;;93.23;29.27;;;;;;;;;;4993331;28;20351;-77
2023/01/26 10:04:38;;;;;;;102.73;30.90;;;;;;;;;;4995014;28;20466;-77
2023/01/26 10:07:08;;;;;;;100.50;29.87;;;;;;;;;;4998016;28;20283;-77
2023/01/26 10:09:36;;;;;;;104.43;31.03;;;;;;;;;;5013066;28;20288;-79
2023/01/26 10:12:06;;;;;;;102.20;30.73;;;;;;;;;;5003297;28;20692;-78
2023/01/26 10:14:41;;;;;;;98.57;29.67;;;;;;;;;;5002112;28;20268;-77
2023/01/26 10:17:14;;;;;;;92.77;27.87;;;;;;;;;;5012905;28;20268;-78
2023/01/26 10:19:40;;;;;;;;;;;;;;;;;;4994885;28;20289;-77
2023/01/26 10:22:10;;;;;;;113.33;30.50;;;;;;;;;;5029821;28;19940;-77
2023/01/26 10:24:36;;;;;;;100.67;29.30;;;;;;;;;;4998677;28;20034;-78
2023/01/26 10:27:09;;;;;;;98.97;30.97;;;;;;;;;;4998270;28;20265;-78
2023/01/26 10:29:34;;;;;;;104.63;28.95;;;;;;;;;;4988276;28;20269;-77
2023/01/26 10:32:06;;;;;;;99.07;30.00;;;;;;;;;;4987895;28;20450;-77
2023/01/26 10:34:32;;;;;;;105.77;31.37;;;;;;;;;;4995150;28;20093;-78
2023/01/26 10:37:11;;;;;;;118.03;32.20;;;;;;;;;;4993220;28;20272;-78
2023/01/26 10:39:55;;;;;;;103.40;29.90;;;;;;;;;;4994154;28;20733;-78
2023/01/26 10:42:22;;;;;;;102.77;28.97;;;;;;;;;;5004768;28;20694;-79
2023/01/26 10:44:50;;;;;;;103.50;32.83;;;;;;;;;;4984783;28;20261;-77
2023/01/26 10:47:17;;;;;;;108.23;31.47;;;;;;;;;;5004665;28;20271;-79
2023/01/26 10:49:46;;;;;;;95.90;30.10;;;;;;;;;;4998393;28;20356;-77
2023/01/26 10:52:20;;;;;;;99.40;31.57;;;;;;;;;;4990264;28;20357;-79
2023/01/26 10:54:46;;;;;;;102.93;31.53;;;;;;;;;;4986231;28;20767;-79
2023/01/26 10:57:21;;;;;;;87.27;28.17;;;;;;;;;;4998487;28;20339;-78
2023/01/26 10:59:58;;;;;;;87.93;29.37;;;;;;;;;;5000014;28;20748;-78
2023/01/26 11:02:26;;;;;;;92.53;30.23;;;;;;;;;;5010032;28;20270;-78
2023/01/26 11:05:03;;;;;;;90.53;30.00;;;;;;;;;;5010431;28;20257;-78
2023/01/26 11:07:34;;;;;;;92.20;29.13;;;;;;;;;;5000222;28;20301;-76
2023/01/26 11:10:18;;;;;;;87.07;28.90;;;;;;;;;;5008296;28;20586;-78
2023/01/26 11:12:44;;;;;;;87.53;29.43;;;;;;;;;;4994394;28;20270;-79
2023/01/26 11:15:16;;;;;;;87.97;29.27;;;;;;;;;;4997157;28;20283;-79
2023/01/26 11:17:46;;;;;;;89.28;29.83;;;;;;;;;;4988420;28;20030;-77
2023/01/26 11:20:14;;;;;;;88.63;28.70;;;;;;;;;;4990631;28;20026;-77
2023/01/26 11:22:52;;;;;;;81.30;29.13;;;;;;;;;;5005625;28;20277;-78
2023/01/26 11:25:27;;;;;;;80.87;28.17;;;;;;;;;;4980698;28;20265;-78
2023/01/26 11:28:06;;;;;;;93.03;30.03;;;;;;;;;;4994187;28;20280;-79
2023/01/26 11:30:47;;;;;;;80.07;26.50;;;;;;;;;;4980248;28;20293;-78
2023/01/26 11:33:16;;;;;;;83.60;27.00;;;;;;;;;;4996516;28;20352;-76
2023/01/26 11:35:48;;;;;;;79.60;26.57;;;;;;;;;;4999416;28;20613;-76
2023/01/26 11:38:33;;;;;;;71.90;26.35;;;;;;;;;;4998968;28;20288;-76
2023/01/26 11:41:20;;;;;;;78.60;26.80;;;;;;;;;;5016495;28;20018;-76
2023/01/26 11:43:46;;;;;;;84.93;29.03;;;;;;;;;;4987379;28;20269;-76
2023/01/26 11:46:19;;;;;;;92.50;30.37;;;;;;;;;;5009177;28;20257;-76
2023/01/26 11:48:57;;;;;;;97.87;30.50;;;;;;;;;;4990388;28;20034;-76
2023/01/26 11:51:42;;;;;;;95.87;32.37;;;;;;;;;;5007450;28;20279;-77
2023/01/26 11:54:15;;;;;;;93.87;29.50;;;;;;;;;;5009397;28;20363;-76
2023/01/26 11:57:03;;;;;;;102.93;32.23;;;;;;;;;;4990386;28;20273;-77
2023/01/26 11:59:32;;;;;;;100.53;30.73;;;;;;;;;;4983394;28;20317;-76
2023/01/26 12:02:04;;;;;;;97.80;31.03;;;;;;;;;;4982209;28;20276;-76
2023/01/26 12:04:31;;;;;;;97.15;30.80;;;;;;;;;;5016031;28;20260;-76
2023/01/26 12:07:06;;;;;;;107.00;32.57;;;;;;;;;;4988786;28;20094;-76
2023/01/26 12:09:35;;;;;;;113.00;35.77;;;;;;;;;;4985900;28;20280;-76
2023/01/26 12:12:17;;;;;;;119.80;35.07;;;;;;;;;;4980390;28;20261;-76
2023/01/26 12:14:55;;;;;;;119.87;35.30;;;;;;;;;;4986438;28;20311;-76
2023/01/26 12:17:31;;;;;;;99.47;30.33;;;;;;;;;;5010845;28;20266;-76
2023/01/26 12:20:03;;;;;;;106.87;31.70;;;;;;;;;;5004659;28;20333;-76
2023/01/26 12:22:39;;;;;;;102.05;33.25;;;;;;;;;;5003407;28;20261;-76
2023/01/26 12:25:08;;;;;;;89.97;30.67;;;;;;;;;;4995177;28;20559;-76
2023/01/26 12:27:38;;;;;;;99.47;31.57;;;;;;;;;;4987021;28;20320;-77
2023/01/26 12:30:22;;;;;;;91.53;29.30;;;;;;;;;;4978859;28;20266;-76
2023/01/26 12:32:48;;;;;;;94.40;31.33;;;;;;;;;;4993078;28;20274;-76
2023/01/26 12:35:15;;;;;;;96.63;29.67;;;;;;;;;;4988592;28;20287;-76
2023/01/26 12:38:04;;;;;;;86.70;28.97;;;;;;;;;;5006487;28;20295;-76
2023/01/26 12:40:34;;;;;;;88.80;27.77;;;;;;;;;;4973539;28;20335;-77
2023/01/26 12:43:35;;;;;;;85.37;28.07;;;;;;;;;;4988083;28;20273;-76
2023/01/26 12:46:01;;;;;;;80.77;26.97;;;;;;;;;;5001325;28;20316;-75
2023/01/26 12:48:36;;;;;;;78.53;28.27;;;;;;;;;;4985906;28;20284;-76
2023/01/26 12:51:08;;;;;;;71.00;26.23;;;;;;;;;;4987371;28;20303;-76
2023/01/26 12:53:41;;;;;;;75.60;26.30;;;;;;;;;;4988881;28;20380;-76
2023/01/26 12:56:23;;;;;;;72.87;23.50;;;;;;;;;;5003015;28;20277;-76
2023/01/26 12:58:50;;;;;;;61.50;23.50;;;;;;;;;;5003188;28;20351;-76
2023/01/26 13:01:18;;;;;;;57.23;20.53;;;;;;;;;;4989169;28;20467;-77
2023/01/26 13:03:55;;;;;;;56.80;21.17;;;;;;;;;;4991826;28;20278;-75
2023/01/26 13:06:26;;;;;;;51.77;19.63;;;;;;;;;;5002220;28;20280;-76
2023/01/26 13:08:53;;;;;;;50.97;21.80;;;;;;;;;;4992305;28;20272;-77
2023/01/26 13:11:37;;;;;;;63.43;21.33;;;;;;;;;;4989420;28;20285;-77
2023/01/26 13:14:23;;;;;;;53.43;20.67;;;;;;;;;;5000411;28;20583;-76
2023/01/26 13:16:49;;;;;;;48.50;18.47;;;;;;;;;;5005624;28;20718;-76
2023/01/26 13:19:41;;;;;;;45.17;18.40;;;;;;;;;;5000682;28;20299;-76
2023/01/26 13:22:22;;;;;;;43.40;18.20;;;;;;;;;;4957625;28;20105;-75
2023/01/26 13:24:51;;;;;;;55.67;19.40;;;;;;;;;;4989378;28;20056;-76
2023/01/26 13:27:35;;;;;;;50.53;18.73;;;;;;;;;;4998781;28;20266;-76
2023/01/26 13:30:01;;;;;;;51.37;18.53;;;;;;;;;;5001475;28;20360;-76
2023/01/26 13:32:27;;;;;;;51.83;19.07;;;;;;;;;;4997847;28;20273;-76
2023/01/26 13:34:57;;;;;;;54.50;20.90;;;;;;;;;;5000865;28;20265;-76
2023/01/26 13:37:41;;;;;;;49.23;19.33;;;;;;;;;;4992131;28;20022;-76
2023/01/26 13:40:18;;;;;;;54.27;21.17;;;;;;;;;;4992025;28;20606;-76
2023/01/26 13:42:50;;;;;;;49.63;18.53;;;;;;;;;;4987352;28;20315;-76
2023/01/26 13:45:19;;;;;;;57.35;20.40;;;;;;;;;;4999694;28;20336;-76
2023/01/26 13:47:48;;;;;;;58.67;21.67;;;;;;;;;;4991454;28;20030;-76
2023/01/26 13:50:30;;;;;;;62.47;21.03;;;;;;;;;;5000909;28;20295;-76
2023/01/26 13:52:57;;;;;;;54.22;20.13;;;;;;;;;;4987282;28;20273;-76
2023/01/26 13:55:25;;;;;;;49.67;19.33;;;;;;;;;;4992842;28;20344;-76
2023/01/26 13:58:09;;;;;;;46.67;17.87;;;;;;;;;;5000878;28;20837;-75
2023/01/26 14:00:35;;;;;;;53.50;18.80;;;;;;;;;;4988270;28;20759;-76
2023/01/26 14:03:01;;;;;;;42.30;18.47;;;;;;;;;;4989608;28;20265;-76
2023/01/26 14:05:28;;;;;;;41.83;17.33;;;;;;;;;;5001953;28;20080;-76
2023/01/26 14:07:54;;;;;;;40.97;17.33;;;;;;;;;;4993870;28;20030;-76
2023/01/26 14:10:20;;;;;;;42.77;18.00;;;;;;;;;;4992592;28;20355;-76
2023/01/26 14:12:48;;;;;;;37.90;16.17;;;;;;;;;;4995724;28;20408;-76
2023/01/26 14:15:20;;;;;;;40.83;17.00;;;;;;;;;;5006329;28;20283;-76
2023/01/26 14:17:48;;;;;;;44.55;16.10;;;;;;;;;;4988026;28;20289;-76
2023/01/26 14:20:26;;;;;;;28.13;11.57;;;;;;;;;;5004680;28;20023;-76
2023/01/26 14:23:03;;;;;;;37.90;17.10;;;;;;;;;;5006272;28;20297;-76
2023/01/26 14:25:29;;;;;;;31.13;14.40;;;;;;;;;;5007863;28;20269;-76
2023/01/26 14:27:57;;;;;;;30.03;13.57;;;;;;;;;;4991023;28;20363;-76
2023/01/26 14:30:30;;;;;;;28.63;13.03;;;;;;;;;;4992685;28;20034;-76
2023/01/26 14:32:59;;;;;;;31.07;12.63;;;;;;;;;;5005585;28;20303;-76
2023/01/26 14:35:27;;;;;;;28.50;12.40;;;;;;;;;;5006917;28;20272;-75
2023/01/26 14:38:04;;;;;;;26.07;12.37;;;;;;;;;;4995313;28;20762;-76
2023/01/26 14:40:30;;;;;;;24.93;11.70;;;;;;;;;;4990778;28;20292;-76
2023/01/26 14:42:56;;;;;;;19.93;10.33;;;;;;;;;;5005028;28;20273;-76
2023/01/26 14:45:30;;;;;;;17.73;8.97;;;;;;;;;;5006145;28;20702;-75
2023/01/26 14:47:59;;;;;;;20.27;9.80;;;;;;;;;;4980875;28;20280;-76
2023/01/26 14:50:31;;;;;;;21.20;9.90;;;;;;;;;;4996602;28;20334;-76
2023/01/26 14:52:57;;;;;;;22.33;9.50;;;;;;;;;;4999234;28;20253;-76
2023/01/26 14:55:28;;;;;;;19.13;9.30;;;;;;;;;;5014238;28;20038;-76
2023/01/26 14:57:54;;;;;;;19.77;9.13;;;;;;;;;;5000201;28;20288;-76
2023/01/26 15:00:28;;;;;;;18.80;9.87;;;;;;;;;;5002818;28;20320;-76
2023/01/26 15:02:56;;;;;;;22.40;9.63;;;;;;;;;;4982211;28;20348;-77
2023/01/26 15:05:23;;;;;;;25.63;10.23;;;;;;;;;;4986317;28;20265;-76
2023/01/26 15:07:59;;;;;;;23.60;10.60;;;;;;;;;;4983053;28;20727;-77
2023/01/26 15:10:44;;;;;;;22.53;11.43;;;;;;;;;;4983696;28;20325;-76